Main page
METAR-TAF:

METAR-TAF

Airports :

Leh, India

Kushok Bakula Rimpochee Airport

latitude: 34-08-09N, longitude: 077-32-47E, elevation: 3256 m

Current weather observation

The report was made 9 hours and 5 minutes ago, at 11:30 UTC
Wind 20 kt from the West/Southwest with gusts up to 30 kt
Temperature 12°C
Humidity 14%
Pressure 1020 hPa
Few clouds at a height of 5000 ft
Scattered clouds at a height of 7000 ft
Broken clouds at a height of 10000 ft

METAR: VILH 301130Z 25020G30KT SOCC FEW050 SCT070 BKN100 12/M15 Q1020 NOSIG RMK K,W-AC REST ANC

Time: 02:05 (20:35 UTC)


TAF: missing

Weather observations and forecasts of more than 4000 airports (METAR and TAF reports).

The available stations are represented by yellow and red dots on the map.

Hover mouse over dot to see the name of the station.

Then click to see weather observations and forecasts.

To change the map : click on the green buttons with a black cross to zoom in, on the green button with a dash to zoom out, or on the green arrows for adjacent maps.


METAR-TAF: